createdAt,value
2023-05-02T00:02:12.489Z,100.00
2023-05-02T00:04:41.052Z,100.00
2023-05-02T00:07:13.977Z,100.00
2023-05-02T00:09:43.635Z,100.00
2023-05-02T00:12:11.601Z,100.00
2023-05-02T00:14:40.290Z,100.00
2023-05-02T00:17:08.822Z,100.00
2023-05-02T00:19:39.373Z,100.00
2023-05-02T00:22:07.652Z,100.00
2023-05-02T00:24:36.396Z,100.00
2023-05-02T00:27:06.383Z,100.00
2023-05-02T00:29:34.417Z,100.00
2023-05-02T00:32:02.514Z,100.00
2023-05-02T00:34:30.884Z,100.00
2023-05-02T00:36:59.231Z,100.00
2023-05-02T00:39:27.251Z,100.00
2023-05-02T00:41:57.637Z,100.00
2023-05-02T00:44:27.351Z,100.00
2023-05-02T00:46:55.770Z,100.00
2023-05-02T00:49:23.723Z,100.00
2023-05-02T00:51:51.693Z,100.00
2023-05-02T00:54:19.981Z,100.00
2023-05-02T00:56:48.500Z,100.00
2023-05-02T00:59:17.009Z,100.00
2023-05-02T01:01:51.415Z,100.00
2023-05-02T01:04:24.343Z,100.00
2023-05-02T01:07:00.886Z,100.00
2023-05-02T01:09:35.673Z,100.00
2023-05-02T01:12:05.896Z,100.00
2023-05-02T01:14:35.862Z,100.00
2023-05-02T01:17:19.917Z,100.00
2023-05-02T01:19:52.264Z,100.00
2023-05-02T01:22:21.121Z,100.00
2023-05-02T01:24:55.371Z,100.00
2023-05-02T01:27:29.153Z,100.00
2023-05-02T01:30:03.022Z,100.00
2023-05-02T01:32:34.198Z,100.00
2023-05-02T01:35:02.763Z,100.00
2023-05-02T01:37:31.963Z,100.00
2023-05-02T01:40:01.263Z,100.00
2023-05-02T01:42:30.635Z,100.00
2023-05-02T01:45:00.878Z,100.00
2023-05-02T01:47:30.843Z,100.00
2023-05-02T01:49:59.661Z,100.00
2023-05-02T01:52:28.733Z,100.00
2023-05-02T01:54:58.270Z,100.00
2023-05-02T01:57:29.333Z,100.00
2023-05-02T01:59:59.808Z,100.00
2023-05-02T02:02:33.384Z,100.00
2023-05-02T02:05:04.091Z,100.00
2023-05-02T02:07:32.299Z,100.00
2023-05-02T02:10:01.241Z,100.00
2023-05-02T02:12:30.650Z,100.00
2023-05-02T02:15:04.112Z,100.00
2023-05-02T02:17:37.777Z,100.00
2023-05-02T02:20:10.196Z,100.00
2023-05-02T02:22:40.260Z,100.00
2023-05-02T02:25:10.137Z,100.00
2023-05-02T02:27:38.477Z,100.00
2023-05-02T02:30:07.126Z,100.00
2023-05-02T02:32:36.575Z,100.00
2023-05-02T02:35:05.253Z,100.00
2023-05-02T02:37:34.195Z,100.00
2023-05-02T02:40:07.697Z,100.00
2023-05-02T02:42:40.713Z,100.00
2023-05-02T02:45:14.546Z,100.00
2023-05-02T02:47:50.222Z,100.00
2023-05-02T02:50:21.537Z,100.00
2023-05-02T02:52:54.701Z,100.00
2023-05-02T02:55:29.606Z,100.00
2023-05-02T02:58:00.178Z,100.00
2023-05-02T03:00:29.118Z,100.00
2023-05-02T03:02:59.228Z,100.00
2023-05-02T03:05:28.337Z,100.00
2023-05-02T03:08:00.129Z,100.00
2023-05-02T03:10:28.503Z,100.00
2023-05-02T03:12:56.495Z,100.00
2023-05-02T03:15:48.015Z,100.00
2023-05-02T03:18:17.912Z,100.00
2023-05-02T03:20:46.878Z,100.00
2023-05-02T03:23:15.395Z,100.00
2023-05-02T03:25:44.464Z,100.00
2023-05-02T03:28:17.409Z,100.00
2023-05-02T03:30:59.757Z,100.00
2023-05-02T03:33:31.280Z,100.00
2023-05-02T03:35:59.557Z,100.00
2023-05-02T03:38:30.287Z,100.00
2023-05-02T03:41:03.110Z,100.00
2023-05-02T03:43:31.938Z,100.00
2023-05-02T03:46:05.455Z,100.00
2023-05-02T03:48:35.062Z,100.00
2023-05-02T03:51:04.419Z,100.00
2023-05-02T03:53:39.954Z,100.00
2023-05-02T03:56:08.995Z,100.00
2023-05-02T03:58:47.263Z,100.00
2023-05-02T04:01:17.925Z,100.00
2023-05-02T04:03:51.530Z,100.00
2023-05-02T04:06:22.189Z,100.00
2023-05-02T04:08:59.431Z,100.00
2023-05-02T04:11:32.319Z,100.00
2023-05-02T04:14:00.762Z,100.00
2023-05-02T04:16:28.814Z,100.00
2023-05-02T04:18:58.113Z,100.00
2023-05-02T04:21:27.547Z,100.00
2023-05-02T04:23:56.049Z,100.00
2023-05-02T04:26:24.434Z,100.00
2023-05-02T04:29:01.112Z,100.00
2023-05-02T04:31:29.429Z,100.00
2023-05-02T04:33:59.056Z,100.00
2023-05-02T04:36:31.311Z,100.00
2023-05-02T04:38:59.280Z,100.00
2023-05-02T04:41:27.578Z,100.00
2023-05-02T04:44:02.942Z,100.00
2023-05-02T04:46:32.441Z,100.00
2023-05-02T04:49:02.168Z,100.00
2023-05-02T04:51:32.226Z,100.00
2023-05-02T04:54:01.613Z,100.00
2023-05-02T04:56:30.116Z,100.00
2023-05-02T04:58:58.224Z,100.00
2023-05-02T05:01:28.330Z,100.00
2023-05-02T05:03:57.615Z,100.00
2023-05-02T05:06:28.206Z,100.00
2023-05-02T05:08:57.907Z,100.00
2023-05-02T05:11:26.725Z,100.00
2023-05-02T05:13:55.332Z,100.00
2023-05-02T05:16:24.318Z,100.00
2023-05-02T05:18:53.983Z,100.00
2023-05-02T05:21:21.938Z,100.00
2023-05-02T05:23:52.619Z,100.00
2023-05-02T05:26:26.757Z,100.00
2023-05-02T05:28:55.914Z,100.00
2023-05-02T05:31:26.807Z,100.00
2023-05-02T05:34:00.987Z,100.00
2023-05-02T05:36:31.620Z,100.00
2023-05-02T05:39:01.268Z,100.00
2023-05-02T05:41:30.831Z,100.00
2023-05-02T05:44:05.905Z,100.00
2023-05-02T05:46:34.256Z,100.00
2023-05-02T05:49:04.105Z,100.00
2023-05-02T05:51:32.224Z,100.00
2023-05-02T05:54:02.931Z,100.00
2023-05-02T05:56:31.360Z,100.00
2023-05-02T05:59:08.476Z,100.00
2023-05-02T06:01:36.850Z,100.00
2023-05-02T06:04:07.220Z,100.00
2023-05-02T06:06:38.352Z,100.00
2023-05-02T06:09:09.046Z,100.00
2023-05-02T06:11:38.595Z,100.00
2023-05-02T06:14:08.200Z,100.00
2023-05-02T06:16:37.069Z,100.00
2023-05-02T06:19:05.335Z,100.00
2023-05-02T06:21:34.283Z,100.00
2023-05-02T06:24:02.521Z,100.00
2023-05-02T06:26:32.008Z,100.00
2023-05-02T06:28:59.950Z,100.00
2023-05-02T06:31:29.553Z,100.00
2023-05-02T06:33:58.122Z,100.00
2023-05-02T06:36:28.103Z,100.00
2023-05-02T06:38:56.449Z,100.00
2023-05-02T06:41:24.579Z,100.00
2023-05-02T06:43:53.967Z,100.00
2023-05-02T06:46:22.019Z,100.00
2023-05-02T06:48:50.028Z,100.00
2023-05-02T06:51:19.446Z,100.00
2023-05-02T06:53:47.805Z,100.00
2023-05-02T06:56:15.889Z,100.00
2023-05-02T06:58:44.429Z,100.00
2023-05-02T07:01:14.041Z,100.00
2023-05-02T07:03:42.177Z,100.00
2023-05-02T07:06:10.760Z,100.00
2023-05-02T07:08:39.264Z,100.00
2023-05-02T07:11:07.495Z,100.00
2023-05-02T07:13:35.583Z,100.00
2023-05-02T07:16:03.599Z,100.00
2023-05-02T07:18:33.008Z,100.00
2023-05-02T07:21:01.733Z,100.00
2023-05-02T07:23:29.935Z,100.00
2023-05-02T07:25:58.205Z,100.00
2023-05-02T07:28:26.561Z,100.00
2023-05-02T07:30:55.039Z,100.00
2023-05-02T07:33:23.891Z,100.00
2023-05-02T07:35:53.302Z,100.00
2023-05-02T07:38:21.841Z,100.00
2023-05-02T07:40:50.315Z,100.00
2023-05-02T07:43:18.758Z,100.00
2023-05-02T07:45:46.755Z,100.00
2023-05-02T07:48:14.904Z,100.00
2023-05-02T07:50:43.253Z,100.00
2023-05-02T07:53:12.558Z,100.00
2023-05-02T07:55:40.867Z,100.00
2023-05-02T07:58:11.727Z,100.00
2023-05-02T08:00:40.575Z,100.00
2023-05-02T08:03:09.236Z,100.00
2023-05-02T08:05:37.774Z,100.00
2023-05-02T08:08:06.688Z,100.00
2023-05-02T08:10:36.142Z,100.00
2023-05-02T08:13:04.448Z,100.00
2023-05-02T08:15:32.549Z,100.00
2023-05-02T08:18:01.049Z,100.00
2023-05-02T08:20:29.185Z,100.00
2023-05-02T08:22:59.830Z,100.00
2023-05-02T08:25:28.213Z,100.00
2023-05-02T08:27:57.503Z,100.00
2023-05-02T08:30:25.939Z,100.00
2023-05-02T08:32:54.107Z,100.00
2023-05-02T08:35:22.339Z,100.00
2023-05-02T08:37:50.377Z,100.00
2023-05-02T08:40:27.291Z,100.00
2023-05-02T08:43:07.766Z,100.00
2023-05-02T08:45:40.222Z,100.00
2023-05-02T08:48:10.645Z,100.00
2023-05-02T08:50:39.792Z,100.00
2023-05-02T08:53:08.407Z,100.00
2023-05-02T08:55:39.952Z,100.00
2023-05-02T08:58:13.239Z,100.00
2023-05-02T09:00:42.650Z,100.00
2023-05-02T09:03:22.743Z,100.00
2023-05-02T09:05:54.346Z,100.00
2023-05-02T09:08:25.222Z,100.00
2023-05-02T09:10:53.314Z,100.00
2023-05-02T09:13:36.236Z,100.00
2023-05-02T09:16:05.593Z,100.00
2023-05-02T09:18:34.807Z,100.00
2023-05-02T09:21:06.399Z,100.00
2023-05-02T09:23:38.315Z,100.00
2023-05-02T09:26:13.299Z,100.00
2023-05-02T09:28:43.722Z,100.00
2023-05-02T09:31:13.471Z,100.00
2023-05-02T09:33:42.146Z,100.00
2023-05-02T09:36:10.658Z,100.00
2023-05-02T09:38:39.475Z,100.00
2023-05-02T09:41:07.700Z,100.00
2023-05-02T09:43:35.656Z,100.00
2023-05-02T09:46:05.899Z,100.00
2023-05-02T09:48:34.909Z,100.00
2023-05-02T09:51:02.811Z,100.00
2023-05-02T09:53:30.848Z,100.00
2023-05-02T09:56:02.588Z,100.00
2023-05-02T09:58:31.877Z,100.00
2023-05-02T10:01:00.572Z,100.00
2023-05-02T10:03:32.043Z,100.00
2023-05-02T10:06:00.215Z,100.00
2023-05-02T10:08:29.480Z,100.00
2023-05-02T10:10:58.500Z,96.28
2023-05-02T10:13:32.116Z,97.23
2023-05-02T10:16:01.760Z,100.00
2023-05-02T10:18:34.677Z,100.00
2023-05-02T10:21:06.737Z,100.00
2023-05-02T10:23:35.564Z,100.00
2023-05-02T10:26:03.843Z,100.00
2023-05-02T10:28:32.497Z,100.00
2023-05-02T10:31:01.382Z,97.89
2023-05-02T10:33:35.172Z,94.11
2023-05-02T10:36:03.614Z,83.34
2023-05-02T10:38:32.313Z,80.14
2023-05-02T10:41:02.943Z,80.11
2023-05-02T10:43:32.619Z,79.25
2023-05-02T10:46:02.073Z,78.96
2023-05-02T10:48:30.585Z,82.75
2023-05-02T10:51:01.701Z,80.93
2023-05-02T10:53:31.306Z,82.51
2023-05-02T10:56:12.886Z,83.65
2023-05-02T10:58:41.135Z,86.64
2023-05-02T11:01:28.343Z,83.26
2023-05-02T11:03:58.265Z,84.58
2023-05-02T11:06:28.881Z,80.78
2023-05-02T11:09:11.868Z,77.27
2023-05-02T11:11:41.630Z,73.01
2023-05-02T11:14:10.518Z,73.11
2023-05-02T11:16:57.584Z,73.62
2023-05-02T11:19:26.049Z,76.07
2023-05-02T11:22:15.557Z,71.69
2023-05-02T11:24:44.844Z,71.24
2023-05-02T11:27:30.946Z,69.81
2023-05-02T11:29:59.963Z,72.02
2023-05-02T11:32:49.557Z,74.73
2023-05-02T11:35:18.835Z,74.62
2023-05-02T11:37:54.106Z,77.02
2023-05-02T11:40:22.392Z,80.73
2023-05-02T11:42:50.423Z,83.16
2023-05-02T11:45:18.688Z,88.54
2023-05-02T11:47:47.634Z,90.77
2023-05-02T11:50:15.898Z,82.94
2023-05-02T11:52:45.021Z,81.34
2023-05-02T11:55:16.666Z,72.89
2023-05-02T11:57:45.008Z,72.09
2023-05-02T12:00:14.148Z,63.64
2023-05-02T12:02:43.530Z,63.89
2023-05-02T12:05:12.620Z,62.35
2023-05-02T12:07:42.360Z,63.15
2023-05-02T12:10:11.090Z,63.60
2023-05-02T12:12:41.164Z,61.93
2023-05-02T12:15:10.155Z,62.48
2023-05-02T12:17:38.942Z,63.76
2023-05-02T12:20:09.332Z,67.16
2023-05-02T12:22:38.186Z,67.92
2023-05-02T12:25:07.580Z,70.81
2023-05-02T12:27:36.023Z,67.99
2023-05-02T12:30:06.376Z,67.54
2023-05-02T12:32:35.165Z,66.70
2023-05-02T12:35:04.244Z,71.22
2023-05-02T12:37:32.606Z,67.11
2023-05-02T12:40:01.093Z,65.54
2023-05-02T12:42:37.900Z,62.82
2023-05-02T12:45:17.644Z,63.46
2023-05-02T12:47:46.282Z,67.45
2023-05-02T12:50:14.951Z,67.04
2023-05-02T12:52:49.879Z,60.93
2023-05-02T12:55:18.268Z,64.57
2023-05-02T12:57:46.967Z,64.06
2023-05-02T13:00:18.212Z,61.21
2023-05-02T13:02:46.472Z,60.77
2023-05-02T13:05:17.480Z,60.37
2023-05-02T13:07:45.649Z,58.21
2023-05-02T13:10:21.184Z,56.24
2023-05-02T13:12:52.424Z,55.24
2023-05-02T13:15:24.987Z,53.85
2023-05-02T13:17:57.347Z,53.32
2023-05-02T13:20:36.717Z,55.17
2023-05-02T13:23:09.842Z,53.37
2023-05-02T13:25:39.868Z,59.23
2023-05-02T13:28:09.089Z,51.60
2023-05-02T13:30:38.812Z,54.39
2023-05-02T13:33:08.008Z,50.03
2023-05-02T13:35:36.049Z,52.51
2023-05-02T13:38:04.201Z,57.31
2023-05-02T13:40:35.022Z,65.15
2023-05-02T13:43:07.864Z,70.23
2023-05-02T13:45:39.307Z,74.80
2023-05-02T13:48:12.634Z,72.68
2023-05-02T13:50:44.599Z,69.84
2023-05-02T13:53:14.137Z,68.70
2023-05-02T13:55:57.650Z,69.77
2023-05-02T13:58:25.744Z,71.37
2023-05-02T14:00:57.039Z,73.57
2023-05-02T14:03:26.961Z,70.58
2023-05-02T14:05:55.646Z,66.20
2023-05-02T14:08:23.682Z,68.88
2023-05-02T14:10:51.750Z,59.61
2023-05-02T14:13:19.937Z,63.57
2023-05-02T14:15:48.628Z,63.74
2023-05-02T14:18:20.035Z,63.70
2023-05-02T14:20:52.141Z,65.36
2023-05-02T14:23:20.263Z,65.51
2023-05-02T14:25:48.591Z,66.23
2023-05-02T14:28:18.300Z,67.67
2023-05-02T14:30:46.385Z,69.71
2023-05-02T14:33:14.440Z,68.75
2023-05-02T14:35:42.863Z,70.79
2023-05-02T14:38:13.415Z,67.91
2023-05-02T14:40:41.434Z,68.31
2023-05-02T14:43:09.700Z,68.79
2023-05-02T14:45:37.954Z,65.29
2023-05-02T14:48:06.799Z,66.07
2023-05-02T14:50:34.855Z,64.67
2023-05-02T14:53:03.064Z,64.43
2023-05-02T14:55:36.703Z,65.70
2023-05-02T14:58:05.721Z,66.16
2023-05-02T15:00:34.679Z,68.34
2023-05-02T15:03:04.497Z,70.77
2023-05-02T15:05:35.061Z,75.71
2023-05-02T15:08:03.506Z,76.21
2023-05-02T15:10:34.528Z,76.93
2023-05-02T15:14:31.747Z,77.19
2023-05-02T15:17:00.736Z,77.83
2023-05-02T15:19:29.331Z,76.77
2023-05-02T15:21:58.448Z,77.09
2023-05-02T15:24:26.858Z,75.79
2023-05-02T15:26:55.057Z,74.34
2023-05-02T15:29:23.450Z,73.40
2023-05-02T15:31:57.188Z,70.63
2023-05-02T15:34:36.816Z,68.05
2023-05-02T15:37:06.294Z,69.40
2023-05-02T15:39:39.415Z,71.26
2023-05-02T15:42:12.261Z,68.52
2023-05-02T15:44:43.574Z,65.17
2023-05-02T15:47:13.140Z,69.13
2023-05-02T15:49:43.979Z,66.49
2023-05-02T15:52:12.588Z,68.51
2023-05-02T15:54:40.924Z,67.89
2023-05-02T15:57:11.403Z,69.48
2023-05-02T15:59:44.895Z,69.58
2023-05-02T16:02:15.942Z,70.51
2023-05-02T16:04:52.243Z,69.62
2023-05-02T16:07:23.149Z,68.71
2023-05-02T16:09:52.345Z,68.35
2023-05-02T16:12:20.598Z,67.97
2023-05-02T16:14:48.750Z,66.58
2023-05-02T16:17:18.433Z,68.25
2023-05-02T16:19:47.026Z,67.76
2023-05-02T16:22:15.469Z,67.80
2023-05-02T16:24:43.694Z,67.34
2023-05-02T16:27:12.048Z,65.70
2023-05-02T16:29:42.318Z,66.08
2023-05-02T16:32:10.484Z,66.47
2023-05-02T16:34:40.422Z,69.31
2023-05-02T16:37:09.396Z,68.70
2023-05-02T16:39:37.849Z,67.64
2023-05-02T16:42:06.800Z,68.48
2023-05-02T16:44:35.217Z,70.17
2023-05-02T16:47:03.592Z,68.88
2023-05-02T16:49:31.975Z,71.38
2023-05-02T16:52:02.017Z,71.73
2023-05-02T16:54:30.629Z,72.51
2023-05-02T16:57:02.523Z,73.36
2023-05-02T16:59:31.018Z,72.89
2023-05-02T17:01:59.257Z,73.59
2023-05-02T17:04:27.595Z,72.71
2023-05-02T17:06:56.689Z,73.00
2023-05-02T17:09:26.264Z,73.39
2023-05-02T17:12:00.973Z,73.37
2023-05-02T17:14:39.546Z,74.20
2023-05-02T17:17:08.692Z,75.45
2023-05-02T17:19:49.904Z,76.25
2023-05-02T17:22:21.380Z,75.88
2023-05-02T17:25:06.433Z,76.18
2023-05-02T17:27:55.818Z,76.46
2023-05-02T17:30:26.644Z,77.42
2023-05-02T17:32:55.812Z,80.08
2023-05-02T17:35:32.614Z,79.92
2023-05-02T17:38:06.524Z,78.05
2023-05-02T17:40:42.009Z,77.40
2023-05-02T17:43:23.339Z,78.91
2023-05-02T17:45:56.041Z,79.90
2023-05-02T17:48:28.280Z,80.84
2023-05-02T17:50:59.363Z,80.88
2023-05-02T17:53:29.487Z,83.06
2023-05-02T17:56:06.263Z,83.94
2023-05-02T17:58:40.813Z,84.48
2023-05-02T18:01:13.495Z,87.01
2023-05-02T18:03:45.249Z,88.02
2023-05-02T18:06:19.452Z,91.67
2023-05-02T18:08:50.612Z,92.61
2023-05-02T18:11:24.077Z,94.19
2023-05-02T18:14:01.235Z,92.99
2023-05-02T18:16:36.354Z,96.16
2023-05-02T18:19:08.109Z,96.61
2023-05-02T18:21:41.142Z,97.65
2023-05-02T18:24:16.799Z,98.96
2023-05-02T18:26:49.242Z,100.00
2023-05-02T18:29:17.868Z,100.00
2023-05-02T18:31:52.238Z,100.00
2023-05-02T18:34:25.324Z,100.00
2023-05-02T18:36:56.547Z,98.65
2023-05-02T18:39:24.955Z,100.00
2023-05-02T18:41:54.763Z,99.96
2023-05-02T18:44:22.851Z,100.00
2023-05-02T18:46:54.253Z,97.42
2023-05-02T18:49:28.332Z,98.40
2023-05-02T18:52:03.428Z,99.48
2023-05-02T18:54:33.590Z,100.00
2023-05-02T18:57:05.257Z,100.00
2023-05-02T18:59:39.232Z,100.00
2023-05-02T19:02:08.034Z,100.00
2023-05-02T19:04:43.828Z,100.00
2023-05-02T19:07:12.913Z,100.00
2023-05-02T19:09:43.537Z,100.00
2023-05-02T19:12:18.272Z,100.00
2023-05-02T19:14:47.800Z,100.00
2023-05-02T19:17:19.026Z,100.00
2023-05-02T19:19:52.329Z,100.00
2023-05-02T19:22:23.658Z,100.00
2023-05-02T19:24:54.289Z,100.00
2023-05-02T19:27:28.161Z,100.00
2023-05-02T19:30:02.629Z,100.00
2023-05-02T19:32:30.912Z,100.00
2023-05-02T19:34:59.397Z,100.00
2023-05-02T19:37:34.068Z,100.00
2023-05-02T19:40:05.180Z,100.00
2023-05-02T19:42:39.659Z,100.00
2023-05-02T19:45:14.026Z,100.00
2023-05-02T19:47:43.896Z,100.00
2023-05-02T19:50:16.170Z,100.00
2023-05-02T19:52:47.622Z,100.00
2023-05-02T19:55:16.416Z,100.00
2023-05-02T19:57:45.951Z,100.00
2023-05-02T20:00:15.355Z,100.00
2023-05-02T20:02:44.419Z,100.00
2023-05-02T20:05:12.918Z,100.00
2023-05-02T20:07:43.974Z,100.00
2023-05-02T20:10:12.380Z,100.00
2023-05-02T20:12:44.903Z,100.00
2023-05-02T20:15:17.822Z,100.00
2023-05-02T20:17:48.643Z,100.00
2023-05-02T20:20:16.893Z,100.00
2023-05-02T20:22:48.618Z,100.00
2023-05-02T20:25:20.055Z,100.00
2023-05-02T20:27:48.545Z,100.00
2023-05-02T20:30:20.472Z,100.00
2023-05-02T20:32:51.455Z,100.00
2023-05-02T20:35:20.805Z,100.00
2023-05-02T20:37:50.841Z,100.00
2023-05-02T20:40:20.232Z,100.00
2023-05-02T20:42:48.479Z,100.00
2023-05-02T20:45:22.085Z,100.00
2023-05-02T20:47:50.589Z,100.00
2023-05-02T20:50:19.333Z,100.00
2023-05-02T20:52:47.885Z,100.00
2023-05-02T20:55:16.208Z,100.00
2023-05-02T20:57:45.957Z,100.00
2023-05-02T21:00:19.728Z,100.00
2023-05-02T21:02:48.059Z,100.00
2023-05-02T21:05:16.452Z,100.00
2023-05-02T21:07:45.093Z,100.00
2023-05-02T21:10:13.820Z,100.00
2023-05-02T21:12:42.129Z,100.00
2023-05-02T21:15:10.550Z,100.00
2023-05-02T21:17:42.433Z,100.00
2023-05-02T21:20:11.399Z,100.00
2023-05-02T21:22:39.877Z,100.00
2023-05-02T21:25:08.779Z,100.00
2023-05-02T21:27:36.949Z,100.00
2023-05-02T21:30:06.314Z,100.00
2023-05-02T21:32:34.695Z,100.00
2023-05-02T21:35:04.806Z,100.00
2023-05-02T21:37:33.034Z,100.00
2023-05-02T21:40:01.675Z,100.00
2023-05-02T21:42:29.975Z,100.00
2023-05-02T21:44:58.421Z,100.00
2023-05-02T21:47:26.868Z,100.00
2023-05-02T21:49:58.560Z,100.00
2023-05-02T21:52:39.262Z,100.00
2023-05-02T21:55:08.449Z,100.00
2023-05-02T21:57:40.754Z,100.00
2023-05-02T22:00:13.054Z,100.00
2023-05-02T22:02:43.489Z,100.00
2023-05-02T22:05:13.735Z,100.00
2023-05-02T22:07:43.399Z,100.00
2023-05-02T22:10:14.732Z,100.00
2023-05-02T22:12:42.991Z,100.00
2023-05-02T22:15:12.874Z,100.00
2023-05-02T22:17:43.268Z,100.00
2023-05-02T22:20:13.230Z,100.00
2023-05-02T22:22:45.698Z,100.00
2023-05-02T22:25:13.968Z,100.00
2023-05-02T22:27:42.456Z,100.00
2023-05-02T22:30:14.418Z,100.00
2023-05-02T22:32:42.693Z,100.00
2023-05-02T22:35:11.652Z,100.00
2023-05-02T22:37:41.356Z,100.00
2023-05-02T22:40:12.657Z,100.00
2023-05-02T22:42:41.465Z,100.00
2023-05-02T22:45:12.279Z,100.00
2023-05-02T22:47:40.781Z,100.00
2023-05-02T22:50:11.776Z,100.00
2023-05-02T22:52:40.043Z,100.00
2023-05-02T22:55:10.096Z,100.00
2023-05-02T22:57:40.465Z,100.00
2023-05-02T23:00:11.123Z,100.00
2023-05-02T23:02:40.869Z,100.00
2023-05-02T23:05:10.855Z,100.00
2023-05-02T23:07:40.416Z,100.00
2023-05-02T23:10:10.157Z,100.00
2023-05-02T23:12:39.959Z,100.00
2023-05-02T23:15:11.926Z,100.00
2023-05-02T23:17:45.516Z,100.00
2023-05-02T23:20:13.935Z,100.00
2023-05-02T23:22:46.761Z,100.00
2023-05-02T23:25:16.198Z,100.00
2023-05-02T23:27:46.682Z,100.00
2023-05-02T23:30:17.290Z,100.00
2023-05-02T23:32:46.415Z,100.00
2023-05-02T23:35:14.738Z,100.00
2023-05-02T23:37:44.103Z,100.00
2023-05-02T23:40:13.389Z,100.00
2023-05-02T23:42:43.492Z,100.00
2023-05-02T23:45:14.090Z,100.00
2023-05-02T23:47:42.690Z,100.00
2023-05-02T23:50:12.143Z,100.00
2023-05-02T23:52:40.489Z,100.00
2023-05-02T23:55:10.773Z,100.00
2023-05-02T23:57:39.050Z,100.00
